sensor_id;sensor_type;location;lat;lon;timestamp;temperature;humidity
851;DHT22;412;51.400;7.480;2022-12-11T00:00:08;5.50;99.90
851;DHT22;412;51.400;7.480;2022-12-11T00:02:34;5.50;99.90
851;DHT22;412;51.400;7.480;2022-12-11T00:05:00;5.50;99.90
851;DHT22;412;51.400;7.480;2022-12-11T00:07:25;5.50;99.90
851;DHT22;412;51.400;7.480;2022-12-11T00:09:51;5.40;99.90
851;DHT22;412;51.400;7.480;2022-12-11T00:12:17;5.40;99.90
851;DHT22;412;51.400;7.480;2022-12-11T00:14:42;5.40;99.90
851;DHT22;412;51.400;7.480;2022-12-11T00:17:08;5.40;99.90
851;DHT22;412;51.400;7.480;2022-12-11T00:19:34;5.40;99.90
851;DHT22;412;51.400;7.480;2022-12-11T00:22:00;5.30;99.90
851;DHT22;412;51.400;7.480;2022-12-11T00:24:26;5.30;99.90
851;DHT22;412;51.400;7.480;2022-12-11T00:26:51;5.40;99.90
851;DHT22;412;51.400;7.480;2022-12-11T00:29:17;5.40;99.90
851;DHT22;412;51.400;7.480;2022-12-11T00:31:43;5.50;99.90
851;DHT22;412;51.400;7.480;2022-12-11T00:34:09;5.40;99.90
851;DHT22;412;51.400;7.480;2022-12-11T00:36:37;5.40;99.90
851;DHT22;412;51.400;7.480;2022-12-11T00:39:03;5.40;99.90
851;DHT22;412;51.400;7.480;2022-12-11T00:41:29;5.40;99.90
851;DHT22;412;51.400;7.480;2022-12-11T00:43:55;5.40;99.90
851;DHT22;412;51.400;7.480;2022-12-11T00:46:21;5.50;99.90
851;DHT22;412;51.400;7.480;2022-12-11T00:48:47;5.50;99.90
851;DHT22;412;51.400;7.480;2022-12-11T00:51:15;5.50;99.90
851;DHT22;412;51.400;7.480;2022-12-11T00:53:41;5.50;99.90
851;DHT22;412;51.400;7.480;2022-12-11T00:56:15;5.40;99.90
851;DHT22;412;51.400;7.480;2022-12-11T00:58:41;5.40;99.90
851;DHT22;412;51.400;7.480;2022-12-11T01:01:12;5.30;99.90
851;DHT22;412;51.400;7.480;2022-12-11T01:03:38;5.30;99.90
851;DHT22;412;51.400;7.480;2022-12-11T01:06:04;5.30;99.90
851;DHT22;412;51.400;7.480;2022-12-11T01:08:30;5.20;99.90
851;DHT22;412;51.400;7.480;2022-12-11T01:11:04;5.20;99.90
851;DHT22;412;51.400;7.480;2022-12-11T01:13:30;5.20;99.90
851;DHT22;412;51.400;7.480;2022-12-11T01:15:56;5.20;99.90
851;DHT22;412;51.400;7.480;2022-12-11T01:18:22;5.20;99.90
851;DHT22;412;51.400;7.480;2022-12-11T01:20:48;5.20;99.90
851;DHT22;412;51.400;7.480;2022-12-11T01:23:16;5.20;99.90
851;DHT22;412;51.400;7.480;2022-12-11T01:25:42;5.20;99.90
851;DHT22;412;51.400;7.480;2022-12-11T01:28:08;5.30;99.90
851;DHT22;412;51.400;7.480;2022-12-11T01:30:34;5.20;99.90
851;DHT22;412;51.400;7.480;2022-12-11T01:33:00;5.30;99.90
851;DHT22;412;51.400;7.480;2022-12-11T01:35:26;5.30;99.90
851;DHT22;412;51.400;7.480;2022-12-11T01:37:52;5.20;99.90
851;DHT22;412;51.400;7.480;2022-12-11T01:40:19;5.20;99.90
851;DHT22;412;51.400;7.480;2022-12-11T01:42:44;5.20;99.90
851;DHT22;412;51.400;7.480;2022-12-11T01:45:35;5.20;99.90
851;DHT22;412;51.400;7.480;2022-12-11T01:48:10;5.30;99.90
851;DHT22;412;51.400;7.480;2022-12-11T01:50:40;5.20;99.90
851;DHT22;412;51.400;7.480;2022-12-11T01:53:09;5.30;99.90
851;DHT22;412;51.400;7.480;2022-12-11T01:55:37;5.30;99.90
851;DHT22;412;51.400;7.480;2022-12-11T01:58:04;5.30;99.90
851;DHT22;412;51.400;7.480;2022-12-11T02:00:30;5.30;99.90
851;DHT22;412;51.400;7.480;2022-12-11T02:02:56;5.30;99.90
851;DHT22;412;51.400;7.480;2022-12-11T02:05:22;5.30;99.90
851;DHT22;412;51.400;7.480;2022-12-11T02:07:51;5.30;99.90
851;DHT22;412;51.400;7.480;2022-12-11T02:10:18;5.30;99.90
851;DHT22;412;51.400;7.480;2022-12-11T02:12:58;5.30;99.90
851;DHT22;412;51.400;7.480;2022-12-11T02:15:39;5.30;99.90
851;DHT22;412;51.400;7.480;2022-12-11T02:18:38;5.30;99.90
851;DHT22;412;51.400;7.480;2022-12-11T02:23:42;5.30;99.90
851;DHT22;412;51.400;7.480;2022-12-11T02:26:30;5.20;99.90
851;DHT22;412;51.400;7.480;2022-12-11T02:29:01;5.30;99.90
851;DHT22;412;51.400;7.480;2022-12-11T02:31:57;5.40;99.90
851;DHT22;412;51.400;7.480;2022-12-11T02:34:33;5.30;99.90
851;DHT22;412;51.400;7.480;2022-12-11T02:37:04;5.30;99.90
851;DHT22;412;51.400;7.480;2022-12-11T02:39:35;5.40;99.90
851;DHT22;412;51.400;7.480;2022-12-11T02:42:03;5.40;99.90
851;DHT22;412;51.400;7.480;2022-12-11T02:44:32;5.30;99.90
851;DHT22;412;51.400;7.480;2022-12-11T02:46:59;5.30;99.90
851;DHT22;412;51.400;7.480;2022-12-11T02:49:25;5.30;99.90
851;DHT22;412;51.400;7.480;2022-12-11T02:51:53;5.20;99.90
851;DHT22;412;51.400;7.480;2022-12-11T02:54:30;5.30;99.90
851;DHT22;412;51.400;7.480;2022-12-11T02:57:01;5.40;99.90
851;DHT22;412;51.400;7.480;2022-12-11T02:59:34;5.30;99.90
851;DHT22;412;51.400;7.480;2022-12-11T03:02:01;5.30;99.90
851;DHT22;412;51.400;7.480;2022-12-11T03:04:28;5.20;99.90
851;DHT22;412;51.400;7.480;2022-12-11T03:06:57;5.30;99.90
851;DHT22;412;51.400;7.480;2022-12-11T03:09:26;5.30;99.90
851;DHT22;412;51.400;7.480;2022-12-11T03:11:52;5.30;99.90
851;DHT22;412;51.400;7.480;2022-12-11T03:14:18;5.40;99.90
851;DHT22;412;51.400;7.480;2022-12-11T03:17:11;5.40;99.90
851;DHT22;412;51.400;7.480;2022-12-11T03:22:22;5.40;99.90
851;DHT22;412;51.400;7.480;2022-12-11T03:25:06;5.40;99.90
851;DHT22;412;51.400;7.480;2022-12-11T03:30:09;5.40;99.90
851;DHT22;412;51.400;7.480;2022-12-11T03:32:47;5.40;99.90
851;DHT22;412;51.400;7.480;2022-12-11T03:37:47;5.40;99.90
851;DHT22;412;51.400;7.480;2022-12-11T03:40:16;5.50;99.90
851;DHT22;412;51.400;7.480;2022-12-11T03:42:47;5.50;99.90
851;DHT22;412;51.400;7.480;2022-12-11T03:45:16;5.50;99.90
851;DHT22;412;51.400;7.480;2022-12-11T03:47:44;5.50;99.90
851;DHT22;412;51.400;7.480;2022-12-11T03:50:12;5.50;99.90
851;DHT22;412;51.400;7.480;2022-12-11T03:52:41;5.50;99.90
851;DHT22;412;51.400;7.480;2022-12-11T03:55:08;5.50;99.90
851;DHT22;412;51.400;7.480;2022-12-11T03:57:35;5.50;99.90
851;DHT22;412;51.400;7.480;2022-12-11T04:00:06;5.50;99.90
851;DHT22;412;51.400;7.480;2022-12-11T04:02:32;5.60;99.90
851;DHT22;412;51.400;7.480;2022-12-11T04:04:58;5.60;99.90
851;DHT22;412;51.400;7.480;2022-12-11T04:07:23;5.60;99.90
851;DHT22;412;51.400;7.480;2022-12-11T04:09:49;5.50;99.90
851;DHT22;412;51.400;7.480;2022-12-11T04:12:15;5.60;99.90
851;DHT22;412;51.400;7.480;2022-12-11T04:14:40;5.60;99.90
851;DHT22;412;51.400;7.480;2022-12-11T04:17:38;5.50;99.90
851;DHT22;412;51.400;7.480;2022-12-11T04:20:23;5.50;99.90
851;DHT22;412;51.400;7.480;2022-12-11T04:23:13;5.60;99.90
851;DHT22;412;51.400;7.480;2022-12-11T04:26:09;5.60;99.90
851;DHT22;412;51.400;7.480;2022-12-11T04:28:35;5.40;99.90
851;DHT22;412;51.400;7.480;2022-12-11T04:31:01;5.40;99.90
851;DHT22;412;51.400;7.480;2022-12-11T04:33:28;5.40;99.90
851;DHT22;412;51.400;7.480;2022-12-11T04:35:57;5.40;99.90
851;DHT22;412;51.400;7.480;2022-12-11T04:38:23;5.40;99.90
851;DHT22;412;51.400;7.480;2022-12-11T04:40:48;5.40;99.90
851;DHT22;412;51.400;7.480;2022-12-11T04:43:14;5.40;99.90
851;DHT22;412;51.400;7.480;2022-12-11T04:45:40;5.30;99.90
851;DHT22;412;51.400;7.480;2022-12-11T04:48:06;5.30;99.90
851;DHT22;412;51.400;7.480;2022-12-11T04:50:31;5.30;99.90
851;DHT22;412;51.400;7.480;2022-12-11T04:52:57;5.30;99.90
851;DHT22;412;51.400;7.480;2022-12-11T04:55:23;5.40;99.90
851;DHT22;412;51.400;7.480;2022-12-11T04:57:49;5.40;99.90
851;DHT22;412;51.400;7.480;2022-12-11T05:00:15;5.40;99.90
851;DHT22;412;51.400;7.480;2022-12-11T05:02:41;5.40;99.90
851;DHT22;412;51.400;7.480;2022-12-11T05:05:09;5.30;99.90
851;DHT22;412;51.400;7.480;2022-12-11T05:07:36;5.30;99.90
851;DHT22;412;51.400;7.480;2022-12-11T05:10:03;5.40;99.90
851;DHT22;412;51.400;7.480;2022-12-11T05:12:28;5.40;99.90
851;DHT22;412;51.400;7.480;2022-12-11T05:14:55;5.40;99.90
851;DHT22;412;51.400;7.480;2022-12-11T05:17:21;5.40;99.90
851;DHT22;412;51.400;7.480;2022-12-11T05:19:49;5.40;99.90
851;DHT22;412;51.400;7.480;2022-12-11T05:22:18;5.40;99.90
851;DHT22;412;51.400;7.480;2022-12-11T05:24:44;5.40;99.90
851;DHT22;412;51.400;7.480;2022-12-11T05:27:10;5.40;99.90
851;DHT22;412;51.400;7.480;2022-12-11T05:29:36;5.40;99.90
851;DHT22;412;51.400;7.480;2022-12-11T05:32:02;5.40;99.90
851;DHT22;412;51.400;7.480;2022-12-11T05:34:28;5.30;99.90
851;DHT22;412;51.400;7.480;2022-12-11T05:36:54;5.30;99.90
851;DHT22;412;51.400;7.480;2022-12-11T05:39:20;5.40;99.90
851;DHT22;412;51.400;7.480;2022-12-11T05:41:45;5.40;99.90
851;DHT22;412;51.400;7.480;2022-12-11T05:44:11;5.40;99.90
851;DHT22;412;51.400;7.480;2022-12-11T05:46:38;5.30;99.90
851;DHT22;412;51.400;7.480;2022-12-11T05:49:04;5.40;99.90
851;DHT22;412;51.400;7.480;2022-12-11T05:51:30;5.40;99.90
851;DHT22;412;51.400;7.480;2022-12-11T05:53:59;5.40;99.90
851;DHT22;412;51.400;7.480;2022-12-11T05:56:27;5.40;99.90
851;DHT22;412;51.400;7.480;2022-12-11T05:58:54;5.40;99.90
851;DHT22;412;51.400;7.480;2022-12-11T06:01:29;5.50;99.90
851;DHT22;412;51.400;7.480;2022-12-11T06:03:55;5.40;99.90
851;DHT22;412;51.400;7.480;2022-12-11T06:06:22;5.50;99.90
851;DHT22;412;51.400;7.480;2022-12-11T06:08:55;5.50;99.90
851;DHT22;412;51.400;7.480;2022-12-11T06:11:22;5.50;99.90
851;DHT22;412;51.400;7.480;2022-12-11T06:13:48;5.50;99.90
851;DHT22;412;51.400;7.480;2022-12-11T06:16:14;5.50;99.90
851;DHT22;412;51.400;7.480;2022-12-11T06:18:42;5.50;99.90
851;DHT22;412;51.400;7.480;2022-12-11T06:21:28;5.50;99.90
851;DHT22;412;51.400;7.480;2022-12-11T06:23:56;5.50;99.90
851;DHT22;412;51.400;7.480;2022-12-11T06:26:22;5.40;99.90
851;DHT22;412;51.400;7.480;2022-12-11T06:28:49;5.40;99.90
851;DHT22;412;51.400;7.480;2022-12-11T06:31:15;5.40;99.90
851;DHT22;412;51.400;7.480;2022-12-11T06:33:41;5.50;99.90
851;DHT22;412;51.400;7.480;2022-12-11T06:36:14;5.50;99.90
851;DHT22;412;51.400;7.480;2022-12-11T06:38:40;5.50;99.90
851;DHT22;412;51.400;7.480;2022-12-11T06:41:07;5.50;99.90
851;DHT22;412;51.400;7.480;2022-12-11T06:43:35;5.60;99.90
851;DHT22;412;51.400;7.480;2022-12-11T06:46:11;5.60;99.90
851;DHT22;412;51.400;7.480;2022-12-11T06:48:37;5.60;99.90
851;DHT22;412;51.400;7.480;2022-12-11T06:51:05;5.70;99.90
851;DHT22;412;51.400;7.480;2022-12-11T06:53:31;5.60;99.90
851;DHT22;412;51.400;7.480;2022-12-11T06:56:08;5.60;99.90
851;DHT22;412;51.400;7.480;2022-12-11T06:58:35;5.50;99.90
851;DHT22;412;51.400;7.480;2022-12-11T07:01:02;5.60;99.90
851;DHT22;412;51.400;7.480;2022-12-11T07:03:28;5.60;99.90
851;DHT22;412;51.400;7.480;2022-12-11T07:06:00;5.60;99.90
851;DHT22;412;51.400;7.480;2022-12-11T07:08:27;5.60;99.90
851;DHT22;412;51.400;7.480;2022-12-11T07:10:54;5.60;99.90
851;DHT22;412;51.400;7.480;2022-12-11T07:13:19;5.70;99.90
851;DHT22;412;51.400;7.480;2022-12-11T07:15:45;5.70;99.90
851;DHT22;412;51.400;7.480;2022-12-11T07:18:11;5.70;99.90
851;DHT22;412;51.400;7.480;2022-12-11T07:20:37;5.70;99.90
851;DHT22;412;51.400;7.480;2022-12-11T07:23:02;5.70;99.90
851;DHT22;412;51.400;7.480;2022-12-11T07:25:28;5.70;99.90
851;DHT22;412;51.400;7.480;2022-12-11T07:27:54;5.70;99.90
851;DHT22;412;51.400;7.480;2022-12-11T07:30:19;5.70;99.90
851;DHT22;412;51.400;7.480;2022-12-11T07:32:45;5.70;99.90
851;DHT22;412;51.400;7.480;2022-12-11T07:35:11;5.70;99.90
851;DHT22;412;51.400;7.480;2022-12-11T07:37:39;5.70;99.90
851;DHT22;412;51.400;7.480;2022-12-11T07:40:06;5.70;99.90
851;DHT22;412;51.400;7.480;2022-12-11T07:42:32;5.80;99.90
851;DHT22;412;51.400;7.480;2022-12-11T07:44:58;5.80;99.90
851;DHT22;412;51.400;7.480;2022-12-11T07:47:23;5.90;99.90
851;DHT22;412;51.400;7.480;2022-12-11T07:49:49;5.90;99.90
851;DHT22;412;51.400;7.480;2022-12-11T07:52:15;5.80;99.90
851;DHT22;412;51.400;7.480;2022-12-11T07:54:40;5.80;99.90
851;DHT22;412;51.400;7.480;2022-12-11T07:57:06;5.90;99.90
851;DHT22;412;51.400;7.480;2022-12-11T07:59:32;5.90;99.90
851;DHT22;412;51.400;7.480;2022-12-11T08:01:57;5.90;99.90
851;DHT22;412;51.400;7.480;2022-12-11T08:04:23;5.90;99.90
851;DHT22;412;51.400;7.480;2022-12-11T08:06:49;5.90;99.90
851;DHT22;412;51.400;7.480;2022-12-11T08:09:14;5.90;99.90
851;DHT22;412;51.400;7.480;2022-12-11T08:11:40;5.80;98.90
851;DHT22;412;51.400;7.480;2022-12-11T08:14:06;5.70;99.40
851;DHT22;412;51.400;7.480;2022-12-11T08:16:33;5.70;99.10
851;DHT22;412;51.400;7.480;2022-12-11T08:18:59;5.70;99.40
851;DHT22;412;51.400;7.480;2022-12-11T08:21:26;5.80;99.60
851;DHT22;412;51.400;7.480;2022-12-11T08:23:53;5.70;99.40
851;DHT22;412;51.400;7.480;2022-12-11T08:26:23;5.70;99.60
851;DHT22;412;51.400;7.480;2022-12-11T08:28:49;5.70;99.60
851;DHT22;412;51.400;7.480;2022-12-11T08:31:15;5.80;99.50
851;DHT22;412;51.400;7.480;2022-12-11T08:33:42;5.80;99.30
851;DHT22;412;51.400;7.480;2022-12-11T08:36:11;5.80;99.30
851;DHT22;412;51.400;7.480;2022-12-11T08:38:38;5.80;99.50
851;DHT22;412;51.400;7.480;2022-12-11T08:41:18;5.80;99.70
851;DHT22;412;51.400;7.480;2022-12-11T08:43:44;5.80;99.40
851;DHT22;412;51.400;7.480;2022-12-11T08:46:11;5.80;99.60
851;DHT22;412;51.400;7.480;2022-12-11T08:48:38;5.80;99.60
851;DHT22;412;51.400;7.480;2022-12-11T08:51:07;5.80;99.20
851;DHT22;412;51.400;7.480;2022-12-11T08:53:33;5.80;99.10
851;DHT22;412;51.400;7.480;2022-12-11T08:56:03;5.80;99.20
851;DHT22;412;51.400;7.480;2022-12-11T08:58:32;5.80;99.10
851;DHT22;412;51.400;7.480;2022-12-11T09:00:57;5.70;99.40
851;DHT22;412;51.400;7.480;2022-12-11T09:03:23;5.70;99.50
851;DHT22;412;51.400;7.480;2022-12-11T09:05:49;5.70;99.30
851;DHT22;412;51.400;7.480;2022-12-11T09:08:15;5.70;99.30
851;DHT22;412;51.400;7.480;2022-12-11T09:10:41;5.70;99.40
851;DHT22;412;51.400;7.480;2022-12-11T09:13:07;5.60;99.40
851;DHT22;412;51.400;7.480;2022-12-11T09:15:32;5.70;99.80
851;DHT22;412;51.400;7.480;2022-12-11T09:17:58;5.70;99.90
851;DHT22;412;51.400;7.480;2022-12-11T09:20:24;5.70;99.90
851;DHT22;412;51.400;7.480;2022-12-11T09:22:50;5.70;99.80
851;DHT22;412;51.400;7.480;2022-12-11T09:25:15;5.70;99.70
851;DHT22;412;51.400;7.480;2022-12-11T09:27:41;5.70;99.70
851;DHT22;412;51.400;7.480;2022-12-11T09:30:07;5.70;99.80
851;DHT22;412;51.400;7.480;2022-12-11T09:32:33;5.80;99.60
851;DHT22;412;51.400;7.480;2022-12-11T09:34:59;5.80;99.20
851;DHT22;412;51.400;7.480;2022-12-11T09:37:24;5.80;99.00
851;DHT22;412;51.400;7.480;2022-12-11T09:39:50;5.80;98.80
851;DHT22;412;51.400;7.480;2022-12-11T09:44:56;5.70;98.10
851;DHT22;412;51.400;7.480;2022-12-11T09:47:38;5.50;98.30
851;DHT22;412;51.400;7.480;2022-12-11T09:52:51;5.60;99.60
851;DHT22;412;51.400;7.480;2022-12-11T09:55:20;5.60;99.40
851;DHT22;412;51.400;7.480;2022-12-11T10:01:11;5.50;99.30
851;DHT22;412;51.400;7.480;2022-12-11T10:06:36;5.60;99.40
851;DHT22;412;51.400;7.480;2022-12-11T10:09:16;5.60;99.70
851;DHT22;412;51.400;7.480;2022-12-11T10:12:01;5.60;99.40
851;DHT22;412;51.400;7.480;2022-12-11T10:17:03;5.60;99.40
851;DHT22;412;51.400;7.480;2022-12-11T10:19:31;5.70;99.00
851;DHT22;412;51.400;7.480;2022-12-11T10:21:57;5.70;98.70
851;DHT22;412;51.400;7.480;2022-12-11T10:24:41;5.70;99.10
851;DHT22;412;51.400;7.480;2022-12-11T10:27:18;5.70;98.80
851;DHT22;412;51.400;7.480;2022-12-11T10:35:52;5.50;99.70
851;DHT22;412;51.400;7.480;2022-12-11T10:38:23;5.40;99.40
851;DHT22;412;51.400;7.480;2022-12-11T10:40:58;5.40;99.70
851;DHT22;412;51.400;7.480;2022-12-11T10:46:04;5.30;99.90
851;DHT22;412;51.400;7.480;2022-12-11T10:48:30;5.40;99.90
851;DHT22;412;51.400;7.480;2022-12-11T10:51:04;5.40;99.90
851;DHT22;412;51.400;7.480;2022-12-11T10:53:32;5.50;99.90
851;DHT22;412;51.400;7.480;2022-12-11T10:55:59;5.60;99.80
851;DHT22;412;51.400;7.480;2022-12-11T10:58:28;5.60;99.70
851;DHT22;412;51.400;7.480;2022-12-11T11:01:22;5.60;99.90
851;DHT22;412;51.400;7.480;2022-12-11T11:04:04;5.40;99.60
851;DHT22;412;51.400;7.480;2022-12-11T11:06:32;5.50;99.80
851;DHT22;412;51.400;7.480;2022-12-11T11:08:59;5.50;99.80
851;DHT22;412;51.400;7.480;2022-12-11T11:11:31;5.50;99.90
851;DHT22;412;51.400;7.480;2022-12-11T11:14:24;5.60;99.70
851;DHT22;412;51.400;7.480;2022-12-11T11:16:53;5.70;99.50
851;DHT22;412;51.400;7.480;2022-12-11T11:19:31;5.70;99.40
851;DHT22;412;51.400;7.480;2022-12-11T11:22:07;5.70;99.40
851;DHT22;412;51.400;7.480;2022-12-11T11:24:43;5.60;99.90
851;DHT22;412;51.400;7.480;2022-12-11T11:27:28;5.60;99.90
851;DHT22;412;51.400;7.480;2022-12-11T11:29:57;5.60;99.70
851;DHT22;412;51.400;7.480;2022-12-11T11:34:50;5.60;99.40
851;DHT22;412;51.400;7.480;2022-12-11T11:37:32;5.60;99.70
851;DHT22;412;51.400;7.480;2022-12-11T11:40:18;5.60;99.80
851;DHT22;412;51.400;7.480;2022-12-11T11:43:04;5.60;99.50
851;DHT22;412;51.400;7.480;2022-12-11T11:46:03;5.60;99.90
851;DHT22;412;51.400;7.480;2022-12-11T11:51:33;5.50;99.20
851;DHT22;412;51.400;7.480;2022-12-11T11:54:06;5.40;99.40
851;DHT22;412;51.400;7.480;2022-12-11T11:56:36;5.50;99.90
851;DHT22;412;51.400;7.480;2022-12-11T11:59:13;5.50;99.90
851;DHT22;412;51.400;7.480;2022-12-11T12:01:41;5.60;99.90
851;DHT22;412;51.400;7.480;2022-12-11T12:04:08;5.60;99.90
851;DHT22;412;51.400;7.480;2022-12-11T12:07:06;5.60;99.90
851;DHT22;412;51.400;7.480;2022-12-11T12:15:34;5.70;99.30
851;DHT22;412;51.400;7.480;2022-12-11T12:23:41;5.70;99.90
851;DHT22;412;51.400;7.480;2022-12-11T12:29:02;5.70;99.70
851;DHT22;412;51.400;7.480;2022-12-11T12:34:43;5.70;99.80
851;DHT22;412;51.400;7.480;2022-12-11T12:37:33;5.70;99.90
851;DHT22;412;51.400;7.480;2022-12-11T12:45:42;5.70;99.30
851;DHT22;412;51.400;7.480;2022-12-11T12:48:10;5.80;99.40
851;DHT22;412;51.400;7.480;2022-12-11T12:50:42;5.80;99.00
851;DHT22;412;51.400;7.480;2022-12-11T12:53:18;5.80;98.90
851;DHT22;412;51.400;7.480;2022-12-11T12:55:46;5.90;99.50
851;DHT22;412;51.400;7.480;2022-12-11T13:04:02;5.80;99.70
851;DHT22;412;51.400;7.480;2022-12-11T13:06:45;5.80;99.90
851;DHT22;412;51.400;7.480;2022-12-11T13:09:21;5.70;99.90
851;DHT22;412;51.400;7.480;2022-12-11T13:11:53;5.70;99.90
851;DHT22;412;51.400;7.480;2022-12-11T13:14:23;5.70;99.90
851;DHT22;412;51.400;7.480;2022-12-11T13:17:23;5.70;99.90
851;DHT22;412;51.400;7.480;2022-12-11T13:20:05;5.70;99.90
851;DHT22;412;51.400;7.480;2022-12-11T13:22:33;5.70;99.90
851;DHT22;412;51.400;7.480;2022-12-11T13:25:18;5.60;99.90
851;DHT22;412;51.400;7.480;2022-12-11T13:27:45;5.70;99.90
851;DHT22;412;51.400;7.480;2022-12-11T13:33:05;5.70;99.90
851;DHT22;412;51.400;7.480;2022-12-11T13:35:33;5.70;99.90
851;DHT22;412;51.400;7.480;2022-12-11T13:38:22;5.70;99.90
851;DHT22;412;51.400;7.480;2022-12-11T13:40:52;5.80;99.90
851;DHT22;412;51.400;7.480;2022-12-11T13:43:25;5.70;99.90
851;DHT22;412;51.400;7.480;2022-12-11T13:45:57;5.70;99.90
851;DHT22;412;51.400;7.480;2022-12-11T13:50:53;5.80;99.60
851;DHT22;412;51.400;7.480;2022-12-11T13:53:21;5.80;99.80
851;DHT22;412;51.400;7.480;2022-12-11T13:55:58;5.80;99.70
851;DHT22;412;51.400;7.480;2022-12-11T13:58:25;5.80;99.60
851;DHT22;412;51.400;7.480;2022-12-11T14:03:39;5.80;99.50
851;DHT22;412;51.400;7.480;2022-12-11T14:06:11;5.80;99.90
851;DHT22;412;51.400;7.480;2022-12-11T14:08:39;5.90;99.90
851;DHT22;412;51.400;7.480;2022-12-11T14:11:06;5.80;99.90
851;DHT22;412;51.400;7.480;2022-12-11T14:13:35;5.90;99.70
851;DHT22;412;51.400;7.480;2022-12-11T14:16:02;5.90;99.30
851;DHT22;412;51.400;7.480;2022-12-11T14:18:33;5.90;99.50
851;DHT22;412;51.400;7.480;2022-12-11T14:21:02;5.80;98.90
851;DHT22;412;51.400;7.480;2022-12-11T14:23:33;5.80;99.30
851;DHT22;412;51.400;7.480;2022-12-11T14:26:20;5.80;99.70
851;DHT22;412;51.400;7.480;2022-12-11T14:28:46;5.90;99.70
851;DHT22;412;51.400;7.480;2022-12-11T14:31:35;5.90;99.70
851;DHT22;412;51.400;7.480;2022-12-11T14:34:22;5.90;99.70
851;DHT22;412;51.400;7.480;2022-12-11T14:36:49;5.90;99.60
851;DHT22;412;51.400;7.480;2022-12-11T14:42:00;5.80;99.70
851;DHT22;412;51.400;7.480;2022-12-11T14:44:30;5.80;99.90
851;DHT22;412;51.400;7.480;2022-12-11T14:47:01;5.80;99.90
851;DHT22;412;51.400;7.480;2022-12-11T14:49:56;5.80;99.90
851;DHT22;412;51.400;7.480;2022-12-11T14:52:38;5.90;99.90
851;DHT22;412;51.400;7.480;2022-12-11T14:55:25;5.90;99.90
851;DHT22;412;51.400;7.480;2022-12-11T14:57:56;5.90;99.70
851;DHT22;412;51.400;7.480;2022-12-11T15:00:25;5.90;99.50
851;DHT22;412;51.400;7.480;2022-12-11T15:05:56;5.90;99.50
851;DHT22;412;51.400;7.480;2022-12-11T15:08:31;5.90;99.70
851;DHT22;412;51.400;7.480;2022-12-11T15:11:06;5.90;99.30
851;DHT22;412;51.400;7.480;2022-12-11T15:13:35;5.90;99.60
851;DHT22;412;51.400;7.480;2022-12-11T15:16:02;5.90;99.30
851;DHT22;412;51.400;7.480;2022-12-11T15:18:32;5.80;98.90
851;DHT22;412;51.400;7.480;2022-12-11T15:21:01;5.70;99.20
851;DHT22;412;51.400;7.480;2022-12-11T15:23:28;5.80;99.50
851;DHT22;412;51.400;7.480;2022-12-11T15:25:56;5.70;99.90
851;DHT22;412;51.400;7.480;2022-12-11T15:28:34;5.70;99.90
851;DHT22;412;51.400;7.480;2022-12-11T15:31:06;5.80;99.90
851;DHT22;412;51.400;7.480;2022-12-11T15:33:43;5.70;99.90
851;DHT22;412;51.400;7.480;2022-12-11T15:36:38;5.80;99.90
851;DHT22;412;51.400;7.480;2022-12-11T15:39:04;5.80;99.90
851;DHT22;412;51.400;7.480;2022-12-11T15:41:33;5.80;99.90
851;DHT22;412;51.400;7.480;2022-12-11T15:44:01;5.80;99.90
851;DHT22;412;51.400;7.480;2022-12-11T15:46:28;5.80;99.90
851;DHT22;412;51.400;7.480;2022-12-11T15:48:55;5.90;99.90
851;DHT22;412;51.400;7.480;2022-12-11T15:51:22;5.90;99.90
851;DHT22;412;51.400;7.480;2022-12-11T15:53:48;6.00;99.70
851;DHT22;412;51.400;7.480;2022-12-11T15:56:14;6.00;98.90
851;DHT22;412;51.400;7.480;2022-12-11T15:58:41;5.90;98.90
851;DHT22;412;51.400;7.480;2022-12-11T16:01:09;5.80;98.90
851;DHT22;412;51.400;7.480;2022-12-11T16:03:34;5.80;99.00
851;DHT22;412;51.400;7.480;2022-12-11T16:06:00;5.70;99.20
851;DHT22;412;51.400;7.480;2022-12-11T16:08:26;5.70;99.70
851;DHT22;412;51.400;7.480;2022-12-11T16:10:53;5.70;99.90
851;DHT22;412;51.400;7.480;2022-12-11T16:13:19;5.80;99.90
851;DHT22;412;51.400;7.480;2022-12-11T16:15:47;5.80;99.90
851;DHT22;412;51.400;7.480;2022-12-11T16:18:20;5.80;99.90
851;DHT22;412;51.400;7.480;2022-12-11T16:20:46;5.80;99.90
851;DHT22;412;51.400;7.480;2022-12-11T16:23:13;5.80;99.90
851;DHT22;412;51.400;7.480;2022-12-11T16:25:40;5.80;99.90
851;DHT22;412;51.400;7.480;2022-12-11T16:28:07;5.80;99.90
851;DHT22;412;51.400;7.480;2022-12-11T16:30:35;5.90;99.90
851;DHT22;412;51.400;7.480;2022-12-11T16:33:02;5.80;99.50
851;DHT22;412;51.400;7.480;2022-12-11T16:35:28;5.80;99.40
851;DHT22;412;51.400;7.480;2022-12-11T16:37:54;5.90;99.50
851;DHT22;412;51.400;7.480;2022-12-11T16:40:25;5.90;99.60
851;DHT22;412;51.400;7.480;2022-12-11T16:42:51;5.90;99.90
851;DHT22;412;51.400;7.480;2022-12-11T16:45:20;6.00;99.90
851;DHT22;412;51.400;7.480;2022-12-11T16:47:46;6.10;99.90
851;DHT22;412;51.400;7.480;2022-12-11T16:50:12;6.30;99.90
851;DHT22;412;51.400;7.480;2022-12-11T16:52:39;6.40;99.90
851;DHT22;412;51.400;7.480;2022-12-11T16:55:06;6.60;99.90
851;DHT22;412;51.400;7.480;2022-12-11T16:57:32;6.60;99.20
851;DHT22;412;51.400;7.480;2022-12-11T16:59:57;6.80;99.80
851;DHT22;412;51.400;7.480;2022-12-11T17:02:23;6.90;99.40
851;DHT22;412;51.400;7.480;2022-12-11T17:04:49;7.00;99.00
851;DHT22;412;51.400;7.480;2022-12-11T17:07:15;7.10;98.40
851;DHT22;412;51.400;7.480;2022-12-11T17:09:41;7.20;97.60
851;DHT22;412;51.400;7.480;2022-12-11T17:12:07;7.20;97.80
851;DHT22;412;51.400;7.480;2022-12-11T17:14:33;7.30;97.40
851;DHT22;412;51.400;7.480;2022-12-11T17:17:04;7.40;97.00
851;DHT22;412;51.400;7.480;2022-12-11T17:19:30;7.50;97.00
851;DHT22;412;51.400;7.480;2022-12-11T17:21:56;7.50;96.60
851;DHT22;412;51.400;7.480;2022-12-11T17:24:23;7.60;96.00
851;DHT22;412;51.400;7.480;2022-12-11T17:26:49;7.60;95.60
851;DHT22;412;51.400;7.480;2022-12-11T17:29:14;7.60;95.60
851;DHT22;412;51.400;7.480;2022-12-11T17:31:40;7.70;95.40
851;DHT22;412;51.400;7.480;2022-12-11T17:34:06;7.70;95.10
851;DHT22;412;51.400;7.480;2022-12-11T17:36:32;7.80;94.90
851;DHT22;412;51.400;7.480;2022-12-11T17:38:58;7.80;94.60
851;DHT22;412;51.400;7.480;2022-12-11T17:41:24;7.80;94.40
851;DHT22;412;51.400;7.480;2022-12-11T17:43:51;7.80;94.70
851;DHT22;412;51.400;7.480;2022-12-11T17:46:18;7.80;94.70
851;DHT22;412;51.400;7.480;2022-12-11T17:48:44;7.90;94.20
851;DHT22;412;51.400;7.480;2022-12-11T17:51:12;7.80;94.50
851;DHT22;412;51.400;7.480;2022-12-11T17:53:38;7.80;94.30
851;DHT22;412;51.400;7.480;2022-12-11T17:56:06;7.70;94.10
851;DHT22;412;51.400;7.480;2022-12-11T17:58:33;7.60;94.00
851;DHT22;412;51.400;7.480;2022-12-11T18:00:59;7.60;94.20
851;DHT22;412;51.400;7.480;2022-12-11T18:03:26;7.40;94.50
851;DHT22;412;51.400;7.480;2022-12-11T18:05:55;7.40;94.70
851;DHT22;412;51.400;7.480;2022-12-11T18:08:26;7.20;94.80
851;DHT22;412;51.400;7.480;2022-12-11T18:10:55;7.10;95.30
851;DHT22;412;51.400;7.480;2022-12-11T18:13:23;7.00;95.70
851;DHT22;412;51.400;7.480;2022-12-11T18:16:05;7.00;96.10
851;DHT22;412;51.400;7.480;2022-12-11T18:18:31;6.90;96.50
851;DHT22;412;51.400;7.480;2022-12-11T18:20:57;6.90;96.50
851;DHT22;412;51.400;7.480;2022-12-11T18:23:23;6.80;96.40
851;DHT22;412;51.400;7.480;2022-12-11T18:25:49;6.80;96.70
851;DHT22;412;51.400;7.480;2022-12-11T18:28:15;6.70;97.00